OSDI

Damascus International Airport

Airport
ICAO code
OSDI
IATA Code
DAM
Summary
ICAO Region
MID
ICAO Territory
Location

Damascus, Dimashq

Serving
Damascus
Elevation
2020 ft
Coordinates
33° 24' 41" N , 36° 30' 56" E
KCC
Metar
Observation
OSDI 082000Z 05006KT 9999 FEW030 10/07 Q1024
Station
Damascus Int. Airport
Date/Time
2022-12-08 20:00:00
Wind direction
50°
Wind speed
06 kts
Lowest cloud amount
few clouds
Temperature
10°C
Dew point
7°C
Humidity
81%
QNH
1024 hPa
Weather condition
n/a

International airport serving the capital of Syria. Damascus International Airport is a public airport located in Damascus, the capital of Syria. Officially opened in the mid-1970s, DAM is Syria's busiest international airport. In 2010, an estimated 5.5 million passengers used the airport, an increase of more than 50% since 2004.

Since the onset of the Syrian civil war, the airport and the road leading to it have been closed intermittently, and all international airlines have ceased flights.

Climatology

Hot, semi-arid/Steppe climate (Köppen climate classification BSh) - hot, sometimes extremely hot summers and mild to warm winters, with low annual precipitation.

Runways

Designator Length Width Surface Rops
05L/23R 3000 45 ASP Yes/Yes
05R/23L 3600 45 ASP Yes/Yes

Airport map

Aerial View

SKYbrary Partners:

Safety knowledge contributed by: